TimeCST,TemperatureF,Dew PointF,Humidity,Sea Level PressureIn,VisibilityMPH,Wind Direction,Wind SpeedMPH,Gust SpeedMPH,PrecipitationIn,Events,Conditions,WindDirDegrees,DateUTC
12:15 AM,53.6,33.8,47,29.82,10.0,SSW,11.5,-,N/A,,Clear,210,2013-01-28 06:15:00
12:35 AM,55.4,33.8,44,29.81,10.0,SSW,12.7,-,N/A,,Clear,210,2013-01-28 06:35:00
12:55 AM,55.4,33.8,44,29.81,10.0,SSW,13.8,-,N/A,,Clear,210,2013-01-28 06:55:00
1:15 AM,55.4,33.8,44,29.81,10.0,SSW,15.0,-,N/A,,Clear,210,2013-01-28 07:15:00
1:35 AM,55.4,33.8,44,29.82,10.0,SW,10.4,-,N/A,,Clear,220,2013-01-28 07:35:00
1:55 AM,53.6,33.8,47,29.82,10.0,SSW,12.7,-,N/A,,Clear,210,2013-01-28 07:55:00
2:15 AM,53.6,33.8,47,29.82,10.0,SW,12.7,-,N/A,,Clear,220,2013-01-28 08:15:00
2:35 AM,53.6,33.8,47,29.83,10.0,SW,11.5,-,N/A,,Clear,220,2013-01-28 08:35:00
2:55 AM,51.8,33.8,50,29.83,10.0,SSW,12.7,-,N/A,,Clear,210,2013-01-28 08:55:00
3:15 AM,51.8,33.8,50,29.83,10.0,SSW,12.7,-,N/A,,Clear,210,2013-01-28 09:15:00
3:35 AM,51.8,33.8,50,29.83,10.0,SW,13.8,-,N/A,,Clear,220,2013-01-28 09:35:00
3:55 AM,50.0,33.8,54,29.83,10.0,SSW,11.5,-,N/A,,Clear,210,2013-01-28 09:55:00
4:15 AM,51.8,33.8,50,29.83,10.0,SSW,12.7,-,N/A,,Clear,210,2013-01-28 10:15:00
4:35 AM,51.8,33.8,50,29.83,10.0,SSW,10.4,-,N/A,,Clear,210,2013-01-28 10:35:00
4:55 AM,50.0,33.8,54,29.83,10.0,SSW,10.4,-,N/A,,Clear,200,2013-01-28 10:55:00
5:15 AM,48.2,33.8,58,29.83,10.0,SSW,10.4,-,N/A,,Clear,200,2013-01-28 11:15:00
5:35 AM,48.2,33.8,58,29.84,10.0,SSW,10.4,-,N/A,,Clear,200,2013-01-28 11:35:00
5:55 AM,50.0,33.8,54,29.84,10.0,SSW,9.2,-,N/A,,Clear,210,2013-01-28 11:55:00
6:15 AM,50.0,33.8,54,29.83,10.0,SSW,10.4,-,N/A,,Clear,200,2013-01-28 12:15:00
6:35 AM,50.0,33.8,54,29.84,10.0,SSW,10.4,-,N/A,,Clear,200,2013-01-28 12:35:00
6:55 AM,50.0,35.6,58,29.84,10.0,SSW,10.4,-,N/A,,Clear,200,2013-01-28 12:55:00
7:35 AM,50.0,35.6,58,29.85,10.0,SSW,9.2,-,N/A,,Clear,210,2013-01-28 13:35:00
7:55 AM,50.0,35.6,58,29.85,10.0,SSW,10.4,-,N/A,,Clear,210,2013-01-28 13:55:00
8:15 AM,51.8,35.6,54,29.85,10.0,SSW,9.2,-,N/A,,Clear,210,2013-01-28 14:15:00
8:35 AM,51.8,35.6,54,29.86,10.0,SSW,10.4,-,N/A,,Clear,210,2013-01-28 14:35:00
8:55 AM,53.6,35.6,51,29.86,10.0,SSW,9.2,-,N/A,,Clear,210,2013-01-28 14:55:00
9:35 AM,59.0,35.6,42,29.85,10.0,SW,13.8,-,N/A,,Clear,220,2013-01-28 15:35:00
9:55 AM,62.6,35.6,37,29.85,10.0,SW,11.5,17.3,N/A,,Clear,220,2013-01-28 15:55:00
10:15 AM,68.0,33.8,28,29.85,10.0,SW,17.3,-,N/A,,Scattered Clouds,230,2013-01-28 16:15:00
10:35 AM,68.0,33.8,28,29.85,10.0,SW,13.8,-,N/A,,Scattered Clouds,230,2013-01-28 16:35:00
10:55 AM,69.8,33.8,27,29.85,10.0,SSW,16.1,21.9,N/A,,Clear,210,2013-01-28 16:55:00
11:15 AM,69.8,33.8,27,29.85,10.0,South,17.3,21.9,N/A,,Clear,190,2013-01-28 17:15:00
11:35 AM,69.8,33.8,27,29.83,10.0,South,18.4,23.0,N/A,,Clear,190,2013-01-28 17:35:00
11:55 AM,69.8,33.8,27,29.83,10.0,South,17.3,-,N/A,,Clear,190,2013-01-28 17:55:00
12:15 PM,71.6,35.6,27,29.81,10.0,South,19.6,25.3,N/A,,Clear,190,2013-01-28 18:15:00
12:35 PM,71.6,35.6,27,29.79,10.0,South,24.2,29.9,N/A,,Clear,190,2013-01-28 18:35:00
12:55 PM,71.6,41.0,33,29.77,10.0,South,20.7,29.9,N/A,,Clear,180,2013-01-28 18:55:00
1:15 PM,71.6,41.0,33,29.76,10.0,South,20.7,27.6,N/A,,Clear,190,2013-01-28 19:15:00
1:35 PM,73.4,42.8,33,29.75,10.0,South,23.0,27.6,N/A,,Clear,190,2013-01-28 19:35:00
1:55 PM,73.4,42.8,33,29.74,10.0,SSW,20.7,32.2,N/A,,Clear,200,2013-01-28 19:55:00
2:15 PM,73.4,42.8,33,29.72,10.0,South,25.3,33.4,N/A,,Clear,190,2013-01-28 20:15:00
2:35 PM,73.4,41.0,31,29.72,10.0,SSW,23.0,29.9,N/A,,Clear,200,2013-01-28 20:35:00
2:55 PM,73.4,41.0,31,29.71,10.0,South,20.7,32.2,N/A,,Clear,190,2013-01-28 20:55:00
3:15 PM,73.4,41.0,31,29.71,10.0,South,26.5,29.9,N/A,,Clear,190,2013-01-28 21:15:00
3:35 PM,73.4,39.2,29,29.70,10.0,SSW,20.7,33.4,N/A,,Clear,210,2013-01-28 21:35:00
3:55 PM,73.4,35.6,25,29.70,10.0,SSW,20.7,28.8,N/A,,Clear,200,2013-01-28 21:55:00
4:15 PM,73.4,37.4,27,29.70,10.0,SSW,23.0,29.9,N/A,,Clear,210,2013-01-28 22:15:00
4:35 PM,73.4,37.4,27,29.69,10.0,SSW,20.7,31.1,N/A,,Clear,210,2013-01-28 22:35:00
4:55 PM,73.4,41.0,31,29.69,10.0,South,19.6,27.6,N/A,,Clear,190,2013-01-28 22:55:00
5:15 PM,71.6,44.6,38,29.68,10.0,South,17.3,25.3,N/A,,Scattered Clouds,170,2013-01-28 23:15:00
5:35 PM,71.6,44.6,38,29.69,10.0,South,16.1,-,N/A,,Scattered Clouds,180,2013-01-28 23:35:00
5:55 PM,69.8,44.6,40,29.68,10.0,South,16.1,23.0,N/A,,Mostly Cloudy,170,2013-01-28 23:55:00
6:15 PM,69.8,46.4,43,29.69,10.0,South,15.0,-,N/A,,Mostly Cloudy,170,2013-01-29 00:15:00
6:35 PM,68.0,48.2,49,29.69,10.0,South,13.8,-,N/A,,Scattered Clouds,170,2013-01-29 00:35:00
6:55 PM,68.0,46.4,46,29.69,10.0,South,15.0,-,N/A,,Scattered Clouds,170,2013-01-29 00:55:00
7:15 PM,68.0,44.6,43,29.69,10.0,South,13.8,-,N/A,,Scattered Clouds,180,2013-01-29 01:15:00
7:35 PM,66.2,44.6,46,29.70,10.0,South,13.8,-,N/A,,Scattered Clouds,190,2013-01-29 01:35:00
7:55 PM,64.4,44.6,49,29.70,10.0,SSW,10.4,-,N/A,,Scattered Clouds,200,2013-01-29 01:55:00
8:15 PM,62.6,42.8,48,29.70,10.0,SSW,12.7,17.3,N/A,,Clear,200,2013-01-29 02:15:00
8:35 PM,64.4,42.8,45,29.71,10.0,SSW,16.1,-,N/A,,Clear,200,2013-01-29 02:35:00
8:55 PM,64.4,41.0,42,29.70,10.0,South,17.3,-,N/A,,Clear,190,2013-01-29 02:55:00
9:15 PM,64.4,41.0,42,29.70,10.0,SSW,16.1,21.9,N/A,,Clear,200,2013-01-29 03:15:00
9:35 PM,64.4,37.4,37,29.70,10.0,SSW,16.1,21.9,N/A,,Clear,200,2013-01-29 03:35:00
9:55 PM,64.4,35.6,34,29.70,10.0,SSW,17.3,-,N/A,,Clear,200,2013-01-29 03:55:00
10:15 PM,64.4,33.8,32,29.69,10.0,SSW,17.3,21.9,N/A,,Clear,200,2013-01-29 04:15:00
10:35 PM,62.6,32.0,32,29.69,10.0,SSW,19.6,24.2,N/A,,Clear,200,2013-01-29 04:35:00
10:55 PM,62.6,32.0,32,29.70,10.0,SSW,16.1,-,N/A,,Clear,200,2013-01-29 04:55:00
11:15 PM,62.6,32.0,32,29.69,10.0,SSW,16.1,-,N/A,,Clear,200,2013-01-29 05:15:00
11:35 PM,62.6,32.0,32,29.68,10.0,SW,13.8,-,N/A,,Clear,220,2013-01-29 05:35:00
11:55 PM,59.0,32.0,36,29.70,10.0,SSW,12.7,-,N/A,,Clear,200,2013-01-29 05:55:00